KGPT/GPT METAR and TAF weather

Enter ICAO airport designator
Station Type Date Time Source
KGPT METAR 2019/06/19 01:53 UTC NOAA

KGPT 190153Z 22003KT 10SM CLR 27/24 A2987 RMK AO2 SLP114 T02720239


Station Type Date Time Source
KGPT Decoded METAR 2019/06/19 01:53 UTC NOAA

GULFPORT-BILOXI REG AIRPORT , MS, United States (KGPT) 30-25N 089-05W 14M
Jun 18, 2019 - 09:53 PM EDT / 2019.06.19 0153 UTC
Wind: from the SW (220 degrees) at 3 MPH (3 KT):0
Visibility: 10 mile(s):0
Sky conditions: clear
Temperature: 81.0 F (27.2 C)
Dew Point: 75.0 F (23.9 C)
Relative Humidity: 82%
Pressure (altimeter): 29.87 in. Hg (1011 hPa)
ob: KGPT 190153Z 22003KT 10SM CLR 27/24 A2987 RMK AO2 SLP114 T02720239
cycle: 2

Station Type Date Time Source
KGPT TAF 2019/06/18 18:33 UTC NOAA

TAF KGPT 181730Z 1818/1918 22008KT P6SM SCT019 SCT024 BKN100
TEMPO 1818/1822 VRB15G25KT 2SM TSRA BR BKN020CB
FM190300 17004KT P6SM SCT250
FM190900 24006KT P6SM VCSH SCT100
FM191200 24005KT P6SM BKN100

Example: see airport list